createdAt,value
2019-01-10T00:00:23.716Z,3.15
2019-01-10T00:01:23.702Z,3.08
2019-01-10T00:02:23.690Z,3.15
2019-01-10T00:03:23.730Z,3.11
2019-01-10T00:04:23.671Z,3.15
2019-01-10T00:05:23.707Z,3.11
2019-01-10T00:06:23.656Z,3.12
2019-01-10T00:07:23.635Z,3.18
2019-01-10T00:08:23.622Z,3.15
2019-01-10T00:09:23.612Z,3.08
2019-01-10T00:10:23.602Z,3.15
2019-01-10T00:11:23.649Z,3.08
2019-01-10T00:12:23.586Z,3.00
2019-01-10T00:13:23.568Z,3.05
2019-01-10T00:14:23.562Z,3.08
2019-01-10T00:15:23.547Z,3.09
2019-01-10T00:16:23.533Z,3.09
2019-01-10T00:17:23.571Z,3.09
2019-01-10T00:18:23.527Z,3.17
2019-01-10T00:19:23.504Z,3.09
2019-01-10T00:20:23.533Z,3.11
2019-01-10T00:21:23.479Z,2.99
2019-01-10T00:22:23.468Z,2.99
2019-01-10T00:23:23.465Z,2.99
2019-01-10T00:24:23.448Z,3.08
2019-01-10T00:25:23.477Z,3.00
2019-01-10T00:26:23.424Z,3.02
2019-01-10T00:27:23.412Z,2.96
2019-01-10T00:28:23.404Z,2.99
2019-01-10T00:29:23.392Z,2.97
2019-01-10T00:30:23.381Z,3.04
2019-01-10T00:31:23.414Z,3.04
2019-01-10T00:32:23.409Z,3.15
2019-01-10T00:33:23.350Z,3.11
2019-01-10T00:34:23.339Z,3.07
2019-01-10T00:35:23.377Z,3.17
2019-01-10T00:36:23.314Z,3.07
2019-01-10T00:37:23.305Z,3.09
2019-01-10T00:38:23.292Z,2.94
2019-01-10T00:39:23.331Z,3.00
2019-01-10T00:40:23.277Z,3.00
2019-01-10T00:41:23.263Z,3.05
2019-01-10T00:42:23.252Z,3.00
2019-01-10T00:43:23.239Z,3.08
2019-01-10T00:44:23.227Z,3.11
2019-01-10T00:45:23.260Z,2.97
2019-01-10T00:46:23.214Z,2.94
2019-01-10T00:47:23.205Z,2.94
2019-01-10T00:48:23.185Z,2.97
2019-01-10T00:49:23.224Z,2.97
2019-01-10T00:50:23.166Z,2.97
2019-01-10T00:51:23.151Z,2.93
2019-01-10T00:52:23.139Z,2.99
2019-01-10T00:53:23.134Z,2.86
2019-01-10T00:54:23.120Z,2.97
2019-01-10T00:55:23.148Z,2.97
2019-01-10T00:56:23.100Z,2.97
2019-01-10T00:57:23.135Z,3.00
2019-01-10T00:58:23.079Z,3.00
2019-01-10T00:59:23.065Z,2.96
2019-01-10T01:00:23.053Z,2.82
2019-01-10T01:01:23.049Z,2.81
2019-01-10T01:02:23.033Z,2.84
2019-01-10T01:03:23.066Z,2.84
2019-01-10T01:04:23.006Z,2.84
2019-01-10T01:05:22.999Z,3.02
2019-01-10T01:06:22.990Z,2.99
2019-01-10T01:07:22.975Z,2.97
2019-01-10T01:08:22.967Z,3.02
2019-01-10T01:09:22.994Z,2.97
2019-01-10T01:10:22.943Z,2.97
2019-01-10T01:11:22.930Z,2.87
2019-01-10T01:12:22.920Z,2.93
2019-01-10T01:13:22.909Z,2.90
2019-01-10T01:14:22.898Z,2.87
2019-01-10T01:15:22.936Z,2.89
2019-01-10T01:16:22.880Z,2.93
2019-01-10T01:17:22.868Z,2.81
2019-01-10T01:18:22.905Z,2.86
2019-01-10T01:19:22.842Z,2.86
2019-01-10T01:20:22.835Z,2.86
2019-01-10T01:21:22.865Z,2.86
2019-01-10T01:22:22.809Z,2.86
2019-01-10T01:23:22.800Z,2.87
2019-01-10T01:24:22.838Z,2.84
2019-01-10T01:25:22.780Z,2.81
2019-01-10T01:26:22.777Z,2.82
2019-01-10T01:27:22.813Z,2.84
2019-01-10T01:28:22.743Z,2.73
2019-01-10T01:29:22.732Z,2.66
2019-01-10T01:30:22.723Z,2.68
2019-01-10T01:31:22.712Z,2.61
2019-01-10T01:32:22.701Z,2.66
2019-01-10T01:33:22.733Z,2.75
2019-01-10T01:34:22.681Z,2.73
2019-01-10T01:35:22.668Z,2.66
2019-01-10T01:36:22.663Z,2.65
2019-01-10T01:37:22.698Z,2.66
2019-01-10T01:38:22.640Z,2.76
2019-01-10T01:39:22.629Z,2.76
2019-01-10T01:40:22.617Z,2.73
2019-01-10T01:41:22.605Z,2.72
2019-01-10T01:42:22.591Z,2.71
2019-01-10T01:43:22.628Z,2.75
2019-01-10T01:44:22.567Z,2.75
2019-01-10T01:45:22.561Z,2.71
2019-01-10T01:46:22.546Z,2.72
2019-01-10T01:47:22.537Z,2.66
2019-01-10T01:48:22.532Z,2.76
2019-01-10T01:49:22.556Z,2.76
2019-01-10T01:50:22.504Z,2.76
2019-01-10T01:51:22.491Z,2.84
2019-01-10T01:52:22.486Z,2.81
2019-01-10T01:53:22.469Z,2.81
2019-01-10T01:54:22.497Z,2.72
2019-01-10T01:55:22.446Z,2.75
2019-01-10T01:56:22.436Z,2.76
2019-01-10T01:57:22.437Z,2.93
2019-01-10T01:58:22.413Z,2.76
2019-01-10T01:59:22.442Z,2.79
2019-01-10T02:00:22.391Z,2.72
2019-01-10T02:01:22.426Z,2.71
2019-01-10T02:02:22.373Z,2.75
2019-01-10T02:03:22.359Z,2.71
2019-01-10T02:04:22.349Z,2.68
2019-01-10T02:05:22.338Z,2.68
2019-01-10T02:06:22.380Z,2.79
2019-01-10T02:07:22.322Z,2.79
2019-01-10T02:08:22.313Z,2.72
2019-01-10T02:09:22.314Z,2.69
2019-01-10T02:10:22.285Z,2.72
2019-01-10T02:11:22.273Z,2.72
2019-01-10T02:12:22.299Z,2.75
2019-01-10T02:13:22.252Z,2.81
2019-01-10T02:14:22.240Z,2.86
2019-01-10T02:15:22.230Z,2.82
2019-01-10T02:16:22.259Z,2.76
2019-01-10T02:17:22.203Z,2.72
2019-01-10T02:18:22.194Z,2.68
2019-01-10T02:19:22.212Z,2.73
2019-01-10T02:20:22.180Z,2.71
2019-01-10T02:21:22.213Z,2.63
2019-01-10T02:22:22.153Z,2.63
2019-01-10T02:23:22.142Z,2.66
2019-01-10T02:24:22.128Z,2.61
2019-01-10T02:25:22.160Z,2.68
2019-01-10T02:26:22.112Z,2.69
2019-01-10T02:27:22.139Z,2.68
2019-01-10T02:28:22.088Z,2.65
2019-01-10T02:29:22.073Z,2.63
2019-01-10T02:30:22.077Z,2.63
2019-01-10T02:31:22.056Z,2.71
2019-01-10T02:32:22.046Z,2.63
2019-01-10T02:33:22.076Z,2.66
2019-01-10T02:34:22.019Z,2.58
2019-01-10T02:35:22.007Z,2.71
2019-01-10T02:36:21.997Z,2.68
2019-01-10T02:37:21.989Z,2.61
2019-01-10T02:38:21.976Z,2.61
2019-01-10T02:39:22.008Z,2.69
2019-01-10T02:40:21.965Z,2.65
2019-01-10T02:41:21.940Z,2.60
2019-01-10T02:42:21.944Z,2.61
2019-01-10T02:43:26.444Z,2.58
2019-01-10T02:44:21.909Z,2.60
2019-01-10T02:45:21.912Z,2.58
2019-01-10T02:46:21.888Z,2.71
2019-01-10T02:47:21.876Z,2.68
2019-01-10T02:48:21.867Z,2.63
2019-01-10T02:49:21.897Z,2.71
2019-01-10T02:50:21.843Z,2.72
2019-01-10T02:51:21.843Z,2.71
2019-01-10T02:52:21.869Z,2.68
2019-01-10T02:53:21.813Z,2.58
2019-01-10T02:54:22.736Z,2.68
2019-01-10T02:55:21.787Z,2.72
2019-01-10T02:56:21.781Z,2.65
2019-01-10T02:57:21.808Z,2.71
2019-01-10T02:58:21.755Z,2.60
2019-01-10T02:59:21.755Z,2.53
2019-01-10T03:00:21.734Z,2.65
2019-01-10T03:01:21.722Z,2.60
2019-01-10T03:02:21.708Z,2.55
2019-01-10T03:03:21.740Z,2.60
2019-01-10T03:04:21.690Z,2.65
2019-01-10T03:05:21.678Z,2.60
2019-01-10T03:06:21.666Z,2.65
2019-01-10T03:07:21.657Z,2.63
2019-01-10T03:08:21.693Z,2.60
2019-01-10T03:09:23.203Z,2.60
2019-01-10T03:10:21.622Z,2.61
2019-01-10T03:11:21.610Z,2.61
2019-01-10T03:12:21.638Z,2.58
2019-01-10T03:13:21.598Z,2.60
2019-01-10T03:14:21.628Z,2.58
2019-01-10T03:15:21.574Z,2.68
2019-01-10T03:16:21.557Z,2.63
2019-01-10T03:17:21.546Z,2.54
2019-01-10T03:18:21.576Z,2.63
2019-01-10T03:19:21.526Z,2.75
2019-01-10T03:20:21.509Z,2.57
2019-01-10T03:21:21.504Z,2.61
2019-01-10T03:22:21.491Z,2.53
2019-01-10T03:23:21.482Z,2.53
2019-01-10T03:24:21.508Z,2.53
2019-01-10T03:25:21.457Z,2.53
2019-01-10T03:26:21.485Z,2.63
2019-01-10T03:27:21.481Z,2.53
2019-01-10T03:28:21.425Z,2.53
2019-01-10T03:29:21.420Z,2.51
2019-01-10T03:30:21.460Z,2.53
2019-01-10T03:31:21.390Z,2.47
2019-01-10T03:32:21.415Z,2.51
2019-01-10T03:33:21.370Z,2.48
2019-01-10T03:34:21.359Z,2.48
2019-01-10T03:35:21.346Z,2.55
2019-01-10T03:36:21.374Z,2.50
2019-01-10T03:37:21.325Z,2.60
2019-01-10T03:38:21.314Z,2.57
2019-01-10T03:39:21.303Z,2.57
2019-01-10T03:40:21.292Z,2.51
2019-01-10T03:41:21.282Z,2.54
2019-01-10T03:42:21.313Z,2.53
2019-01-10T03:43:21.297Z,2.54
2019-01-10T03:44:21.246Z,2.47
2019-01-10T03:45:21.239Z,2.57
2019-01-10T03:46:21.225Z,2.55
2019-01-10T03:47:21.211Z,2.54
2019-01-10T03:48:21.201Z,2.53
2019-01-10T03:49:21.233Z,2.47
2019-01-10T03:50:21.182Z,2.45
2019-01-10T03:51:21.399Z,2.43
2019-01-10T03:52:21.189Z,2.47
2019-01-10T03:53:21.154Z,2.48
2019-01-10T03:54:21.136Z,2.51
2019-01-10T03:55:21.139Z,2.50
2019-01-10T03:56:21.159Z,2.50
2019-01-10T03:57:21.106Z,2.60
2019-01-10T03:58:21.092Z,2.57
2019-01-10T03:59:21.084Z,2.63
2019-01-10T04:00:21.128Z,2.61
2019-01-10T04:01:21.067Z,2.54
2019-01-10T04:02:21.048Z,2.47
2019-01-10T04:03:21.036Z,2.48
2019-01-10T04:04:21.049Z,2.54
2019-01-10T04:05:21.017Z,2.53
2019-01-10T04:06:21.057Z,2.61
2019-01-10T04:07:20.995Z,2.54
2019-01-10T04:08:20.982Z,2.48
2019-01-10T04:09:20.972Z,2.51
2019-01-10T04:10:20.958Z,2.57
2019-01-10T04:11:20.998Z,2.50
2019-01-10T04:12:20.937Z,2.53
2019-01-10T04:13:20.943Z,2.48
2019-01-10T04:14:20.919Z,2.39
2019-01-10T04:15:20.909Z,2.48
2019-01-10T04:16:20.893Z,2.54
2019-01-10T04:17:20.930Z,2.42
2019-01-10T04:18:20.884Z,2.50
2019-01-10T04:19:20.859Z,2.37
2019-01-10T04:20:20.853Z,2.48
2019-01-10T04:21:20.851Z,2.40
2019-01-10T04:22:20.829Z,2.45
2019-01-10T04:23:20.869Z,2.42
2019-01-10T04:24:20.809Z,2.40
2019-01-10T04:25:20.795Z,2.40
2019-01-10T04:26:20.782Z,2.42
2019-01-10T04:27:20.773Z,2.42
2019-01-10T04:28:20.765Z,2.45
2019-01-10T04:29:20.793Z,2.51
2019-01-10T04:30:20.786Z,2.43
2019-01-10T04:31:20.729Z,2.51
2019-01-10T04:32:21.357Z,2.39
2019-01-10T04:33:20.713Z,2.43
2019-01-10T04:34:20.695Z,2.37
2019-01-10T04:35:20.723Z,2.45
2019-01-10T04:36:20.673Z,2.40
2019-01-10T04:37:20.663Z,2.48
2019-01-10T04:38:20.653Z,2.39
2019-01-10T04:39:20.644Z,2.35
2019-01-10T04:40:20.684Z,2.35
2019-01-10T04:41:20.685Z,2.33
2019-01-10T04:42:21.832Z,2.42
2019-01-10T04:43:20.603Z,2.32
2019-01-10T04:44:20.611Z,2.37
2019-01-10T04:45:20.588Z,2.25
2019-01-10T04:46:20.568Z,2.39
2019-01-10T04:47:20.593Z,2.39
2019-01-10T04:48:20.540Z,2.43
2019-01-10T04:49:20.535Z,2.36
2019-01-10T04:50:20.516Z,2.42
2019-01-10T04:51:20.549Z,2.48
2019-01-10T04:52:20.497Z,2.39
2019-01-10T04:53:20.486Z,2.48
2019-01-10T04:54:20.474Z,2.45
2019-01-10T04:55:20.500Z,2.47
2019-01-10T04:56:20.452Z,2.51
2019-01-10T04:57:20.440Z,2.48
2019-01-10T04:58:20.431Z,2.43
2019-01-10T04:59:20.421Z,2.45
2019-01-10T05:00:20.467Z,2.51
2019-01-10T05:01:20.398Z,2.50
2019-01-10T05:02:20.407Z,2.43
2019-01-10T05:03:20.376Z,2.48
2019-01-10T05:04:20.365Z,2.54
2019-01-10T05:05:20.353Z,2.50
2019-01-10T05:06:20.383Z,2.60
2019-01-10T05:07:20.335Z,2.55
2019-01-10T05:08:20.361Z,2.48
2019-01-10T05:09:20.315Z,2.50
2019-01-10T05:10:20.325Z,2.54
2019-01-10T05:11:20.289Z,2.55
2019-01-10T05:12:20.277Z,2.50
2019-01-10T05:13:20.266Z,2.53
2019-01-10T05:14:20.296Z,2.45
2019-01-10T05:15:20.263Z,2.53
2019-01-10T05:16:20.233Z,2.50
2019-01-10T05:17:20.223Z,2.42
2019-01-10T05:18:20.218Z,2.45
2019-01-10T05:19:20.202Z,2.39
2019-01-10T05:20:20.231Z,2.42
2019-01-10T05:21:20.180Z,2.48
2019-01-10T05:22:20.839Z,2.43
2019-01-10T05:23:22.191Z,2.43
2019-01-10T05:24:20.158Z,2.43
2019-01-10T05:25:20.179Z,2.43
2019-01-10T05:26:20.838Z,2.48
2019-01-10T05:27:20.113Z,2.45
2019-01-10T05:28:20.103Z,2.57
2019-01-10T05:29:20.090Z,2.63
2019-01-10T05:30:20.080Z,2.50
2019-01-10T05:31:20.113Z,2.47
2019-01-10T05:32:20.098Z,2.55
2019-01-10T05:33:20.049Z,2.53
2019-01-10T05:34:20.035Z,2.57
2019-01-10T05:35:20.033Z,2.53
2019-01-10T05:36:20.013Z,2.60
2019-01-10T05:37:20.044Z,2.48
2019-01-10T05:38:19.997Z,2.50
2019-01-10T05:39:19.982Z,2.45
2019-01-10T05:40:19.997Z,2.48
2019-01-10T05:41:19.958Z,2.40
2019-01-10T05:42:19.960Z,2.53
2019-01-10T05:43:19.977Z,2.45
2019-01-10T05:44:26.483Z,2.51
2019-01-10T05:45:20.920Z,2.54
2019-01-10T05:46:19.908Z,2.61
2019-01-10T05:47:19.910Z,2.47
2019-01-10T05:48:19.883Z,2.42
2019-01-10T05:49:19.922Z,2.50
2019-01-10T05:50:19.862Z,2.57
2019-01-10T05:51:19.851Z,2.51
2019-01-10T05:52:19.847Z,2.51
2019-01-10T05:53:19.828Z,2.54
2019-01-10T05:54:20.701Z,2.60
2019-01-10T05:55:19.851Z,2.58
2019-01-10T05:56:19.800Z,2.50
2019-01-10T05:57:19.788Z,2.53
2019-01-10T05:58:19.776Z,2.45
2019-01-10T05:59:19.769Z,2.48
2019-01-10T06:00:19.755Z,2.53
2019-01-10T06:01:19.788Z,2.48
2019-01-10T06:02:19.755Z,2.51
2019-01-10T06:03:19.736Z,2.42
2019-01-10T06:04:19.710Z,2.51
2019-01-10T06:05:19.711Z,2.57
2019-01-10T06:06:19.689Z,2.50
2019-01-10T06:07:19.725Z,2.50
2019-01-10T06:08:19.730Z,2.53
2019-01-10T06:09:19.654Z,2.45
2019-01-10T06:10:19.651Z,2.48
2019-01-10T06:11:19.684Z,2.50
2019-01-10T06:12:19.624Z,2.47
2019-01-10T06:13:19.617Z,2.43
2019-01-10T06:14:19.653Z,2.43
2019-01-10T06:15:19.595Z,2.47
2019-01-10T06:16:19.605Z,2.35
2019-01-10T06:17:19.576Z,2.33
2019-01-10T06:18:19.568Z,2.21
2019-01-10T06:19:26.783Z,2.30
2019-01-10T06:20:20.590Z,2.15
2019-01-10T06:21:19.542Z,2.15
2019-01-10T06:22:19.522Z,2.15
2019-01-10T06:23:19.716Z,2.15
2019-01-10T06:24:19.547Z,2.14
2019-01-10T06:25:19.495Z,2.19
2019-01-10T06:26:19.574Z,2.14
2019-01-10T06:27:19.462Z,2.28
2019-01-10T06:28:19.466Z,2.28
2019-01-10T06:29:19.444Z,2.21
2019-01-10T06:30:19.474Z,2.14
2019-01-10T06:31:19.427Z,2.14
2019-01-10T06:32:19.402Z,2.15
2019-01-10T06:33:19.403Z,2.15
2019-01-10T06:34:19.396Z,2.18
2019-01-10T06:35:19.433Z,2.17
2019-01-10T06:36:19.392Z,2.17
2019-01-10T06:37:19.357Z,2.17
2019-01-10T06:38:19.403Z,2.10
2019-01-10T06:39:19.833Z,2.14
2019-01-10T06:40:19.328Z,2.11
2019-01-10T06:41:19.304Z,2.12
2019-01-10T06:42:19.400Z,2.19
2019-01-10T06:43:19.333Z,2.15
2019-01-10T06:44:21.490Z,2.15
2019-01-10T06:45:19.271Z,2.18
2019-01-10T06:46:19.257Z,2.25
2019-01-10T06:47:19.257Z,2.12
2019-01-10T06:48:19.285Z,2.15
2019-01-10T06:49:19.224Z,2.11
2019-01-10T06:50:19.248Z,2.12
2019-01-10T06:51:19.207Z,2.06
2019-01-10T06:52:19.191Z,2.11
2019-01-10T06:53:19.204Z,2.10
2019-01-10T06:54:19.167Z,2.15
2019-01-10T06:55:19.192Z,2.15
2019-01-10T06:56:19.149Z,2.12
2019-01-10T06:57:19.142Z,2.19
2019-01-10T06:58:19.316Z,2.15
2019-01-10T06:59:19.126Z,2.01
2019-01-10T07:00:19.101Z,1.97
2019-01-10T07:01:19.211Z,2.00
2019-01-10T07:02:19.112Z,1.92
2019-01-10T07:03:19.077Z,1.99
2019-01-10T07:04:19.123Z,2.00
2019-01-10T07:05:19.117Z,1.95
2019-01-10T07:06:20.012Z,1.99
2019-01-10T07:07:19.023Z,2.00
2019-01-10T07:08:19.014Z,1.92
2019-01-10T07:09:19.026Z,1.95
2019-01-10T07:10:19.051Z,1.99
2019-01-10T07:11:18.978Z,1.99
2019-01-10T07:12:18.963Z,2.03
2019-01-10T07:13:18.974Z,2.01
2019-01-10T07:14:18.954Z,2.03
2019-01-10T07:15:18.960Z,2.06
2019-01-10T07:16:19.000Z,2.06
2019-01-10T07:17:18.969Z,2.06
2019-01-10T07:18:18.912Z,1.95
2019-01-10T07:19:18.898Z,1.87
2019-01-10T07:20:18.882Z,1.93
2019-01-10T07:21:19.838Z,1.92
2019-01-10T07:22:18.892Z,1.92
2019-01-10T07:23:18.855Z,1.99
2019-01-10T07:24:18.853Z,2.01
2019-01-10T07:25:19.877Z,2.03
2019-01-10T07:26:18.816Z,1.95
2019-01-10T07:27:18.806Z,1.95
2019-01-10T07:28:18.786Z,2.00
2019-01-10T07:29:18.789Z,2.11
2019-01-10T07:30:18.984Z,2.10
2019-01-10T07:31:18.804Z,2.12
2019-01-10T07:32:18.748Z,1.95
2019-01-10T07:33:18.783Z,2.04
2019-01-10T07:34:18.753Z,1.95
2019-01-10T07:35:18.758Z,2.00
2019-01-10T07:36:18.823Z,1.93
2019-01-10T07:37:18.693Z,2.00
2019-01-10T07:38:18.693Z,1.95
2019-01-10T07:39:18.665Z,1.97
2019-01-10T07:40:18.700Z,2.01
2019-01-10T07:41:20.317Z,2.00
2019-01-10T07:42:18.638Z,1.93
2019-01-10T07:43:18.635Z,2.01
2019-01-10T07:44:18.778Z,1.89
2019-01-10T07:45:18.599Z,1.89
2019-01-10T07:46:18.640Z,1.91
2019-01-10T07:47:18.602Z,1.87
2019-01-10T07:48:18.754Z,1.91
2019-01-10T07:49:18.555Z,1.97
2019-01-10T07:50:18.557Z,1.97
2019-01-10T07:51:18.570Z,1.89
2019-01-10T07:52:18.572Z,2.06
2019-01-10T07:53:18.596Z,1.99
2019-01-10T07:54:18.545Z,2.04
2019-01-10T07:55:18.490Z,2.12
2019-01-10T07:56:18.490Z,2.01
2019-01-10T07:57:18.468Z,2.00
2019-01-10T07:58:18.459Z,2.03
2019-01-10T07:59:18.470Z,2.00
2019-01-10T08:00:18.556Z,1.84
2019-01-10T08:01:18.449Z,2.00
2019-01-10T08:02:18.417Z,1.85
2019-01-10T08:03:18.442Z,1.97
2019-01-10T08:04:18.431Z,1.97
2019-01-10T08:05:18.411Z,2.01
2019-01-10T08:06:19.342Z,1.97
2019-01-10T08:07:18.366Z,1.99
2019-01-10T08:08:18.347Z,2.00
2019-01-10T08:09:18.365Z,1.87
2019-01-10T08:10:18.336Z,1.92
2019-01-10T08:11:19.517Z,1.87
2019-01-10T08:12:18.302Z,1.95
2019-01-10T08:13:19.587Z,2.04
2019-01-10T08:14:18.283Z,2.04
2019-01-10T08:15:18.275Z,2.06
2019-01-10T08:16:18.256Z,2.01
2019-01-10T08:17:18.315Z,1.99
2019-01-10T08:18:18.242Z,2.04
2019-01-10T08:19:18.249Z,1.99
2019-01-10T08:20:18.326Z,1.99
2019-01-10T08:21:18.205Z,1.87
2019-01-10T08:22:18.227Z,1.89
2019-01-10T08:23:18.240Z,1.97
2019-01-10T08:24:18.198Z,2.11
2019-01-10T08:25:18.156Z,2.11
2019-01-10T08:26:18.158Z,2.25
2019-01-10T08:27:18.139Z,2.15
2019-01-10T08:28:18.126Z,2.18
2019-01-10T08:29:18.153Z,1.95
2019-01-10T08:30:18.140Z,1.95
2019-01-10T08:31:18.103Z,1.95
2019-01-10T08:32:18.082Z,1.95
2019-01-10T08:33:18.099Z,1.97
2019-01-10T08:34:18.118Z,1.93
2019-01-10T08:35:18.048Z,1.92
2019-01-10T08:36:18.045Z,1.95
2019-01-10T08:37:18.032Z,2.04
2019-01-10T08:38:18.079Z,1.95
2019-01-10T08:39:18.024Z,2.06
2019-01-10T08:40:17.999Z,2.11
2019-01-10T08:41:17.983Z,2.04
2019-01-10T08:42:18.155Z,2.10
2019-01-10T08:43:17.983Z,1.97
2019-01-10T08:44:18.069Z,2.03
2019-01-10T08:45:21.757Z,2.11
2019-01-10T08:46:18.937Z,2.15
2019-01-10T08:47:17.932Z,2.12
2019-01-10T08:48:17.959Z,2.07
2019-01-10T08:49:18.014Z,2.18
2019-01-10T08:50:17.894Z,2.15
2019-01-10T08:51:17.931Z,2.15
2019-01-10T08:52:17.932Z,2.25
2019-01-10T08:53:17.968Z,2.35
2019-01-10T08:54:17.898Z,2.33
2019-01-10T08:55:17.827Z,2.33
2019-01-10T08:56:17.824Z,2.42
2019-01-10T08:57:17.820Z,2.33
2019-01-10T08:58:17.826Z,2.33
2019-01-10T08:59:17.851Z,2.36
2019-01-10T09:00:17.774Z,2.33
2019-01-10T09:01:17.788Z,2.22
2019-01-10T09:02:17.811Z,2.25
2019-01-10T09:03:17.739Z,2.14
2019-01-10T09:04:17.761Z,2.30
2019-01-10T09:05:17.769Z,2.36
2019-01-10T09:06:17.821Z,2.35
2019-01-10T09:07:17.705Z,2.40
2019-01-10T09:08:17.843Z,2.32
2019-01-10T09:09:17.759Z,2.33
2019-01-10T09:10:17.699Z,2.45
2019-01-10T09:11:17.672Z,2.42
2019-01-10T09:12:17.757Z,2.43
2019-01-10T09:13:18.421Z,2.40
2019-01-10T09:14:17.723Z,2.40
2019-01-10T09:15:23.322Z,2.42
2019-01-10T09:16:18.633Z,2.37
2019-01-10T09:17:17.688Z,2.25
2019-01-10T09:18:17.649Z,2.30
2019-01-10T09:19:17.639Z,2.47
2019-01-10T09:20:17.601Z,2.39
2019-01-10T09:21:17.602Z,2.33
2019-01-10T09:22:17.601Z,2.32
2019-01-10T09:23:17.633Z,2.33
2019-01-10T09:24:17.546Z,2.40
2019-01-10T09:25:17.884Z,2.47
2019-01-10T09:26:17.563Z,2.47
2019-01-10T09:27:17.543Z,2.35
2019-01-10T09:28:17.469Z,2.30
2019-01-10T09:29:17.467Z,2.33
2019-01-10T09:30:17.497Z,2.32
2019-01-10T09:31:17.444Z,2.35
2019-01-10T09:32:17.447Z,2.40
2019-01-10T09:33:17.521Z,2.45
2019-01-10T09:34:24.592Z,2.39
2019-01-10T09:35:18.395Z,2.47
2019-01-10T09:36:17.411Z,2.40
2019-01-10T09:37:17.473Z,2.60
2019-01-10T09:38:17.434Z,2.47
2019-01-10T09:39:17.367Z,2.58
2019-01-10T09:40:17.504Z,2.71
2019-01-10T09:41:17.365Z,2.71
2019-01-10T09:42:17.399Z,2.86
2019-01-10T09:43:17.364Z,2.78
2019-01-10T09:44:17.355Z,2.73
2019-01-10T09:45:17.284Z,2.63
2019-01-10T09:46:17.277Z,2.47
2019-01-10T09:47:17.325Z,2.43
2019-01-10T09:48:17.255Z,2.35
2019-01-10T09:49:17.249Z,2.39
2019-01-10T09:50:17.468Z,2.37
2019-01-10T09:51:17.274Z,2.45
2019-01-10T09:52:17.217Z,2.45
2019-01-10T09:53:17.209Z,2.45
2019-01-10T09:54:17.197Z,2.42
2019-01-10T09:55:17.174Z,2.47
2019-01-10T09:56:17.365Z,2.42
2019-01-10T09:57:17.155Z,2.42
2019-01-10T09:58:17.196Z,2.45
2019-01-10T09:59:17.129Z,2.39
2019-01-10T10:00:17.126Z,2.51
2019-01-10T10:01:17.123Z,2.40
2019-01-10T10:02:17.120Z,2.30
2019-01-10T10:03:17.240Z,2.51
2019-01-10T10:04:17.147Z,2.43
2019-01-10T10:05:17.062Z,2.55
2019-01-10T10:06:17.070Z,2.60
2019-01-10T10:07:17.137Z,2.60
2019-01-10T10:08:17.156Z,2.79
2019-01-10T10:09:17.038Z,2.72
2019-01-10T10:10:17.047Z,2.65
2019-01-10T10:11:16.998Z,2.61
2019-01-10T10:12:17.033Z,2.51
2019-01-10T10:13:16.994Z,2.68
2019-01-10T10:14:17.009Z,2.61
2019-01-10T10:15:16.999Z,2.69
2019-01-10T10:16:16.997Z,2.66
2019-01-10T10:17:16.947Z,2.61
2019-01-10T10:18:16.945Z,2.73
2019-01-10T10:19:16.948Z,2.69
2019-01-10T10:20:16.907Z,2.75
2019-01-10T10:21:16.924Z,2.75
2019-01-10T10:22:16.923Z,2.72
2019-01-10T10:23:16.865Z,2.81
2019-01-10T10:24:16.916Z,2.68
2019-01-10T10:25:16.857Z,2.79
2019-01-10T10:26:16.851Z,2.81
2019-01-10T10:27:16.860Z,2.79
2019-01-10T10:28:16.816Z,2.69
2019-01-10T10:29:16.809Z,2.69
2019-01-10T10:30:16.835Z,2.86
2019-01-10T10:31:16.827Z,2.93
2019-01-10T10:32:16.768Z,3.07
2019-01-10T10:33:16.770Z,2.93
2019-01-10T10:34:16.769Z,3.09
2019-01-10T10:35:16.740Z,3.00
2019-01-10T10:36:16.773Z,2.96
2019-01-10T10:37:16.726Z,2.97
2019-01-10T10:38:16.708Z,2.97
2019-01-10T10:39:16.728Z,2.82
2019-01-10T10:40:16.837Z,2.82
2019-01-10T10:41:16.672Z,2.81
2019-01-10T10:42:16.663Z,2.78
2019-01-10T10:43:16.806Z,2.81
2019-01-10T10:44:16.722Z,2.66
2019-01-10T10:45:16.627Z,2.76
2019-01-10T10:46:16.633Z,2.96
2019-01-10T10:47:16.604Z,2.94
2019-01-10T10:48:16.599Z,3.05
2019-01-10T10:49:16.589Z,2.91
2019-01-10T10:50:16.653Z,2.81
2019-01-10T10:51:16.562Z,2.86
2019-01-10T10:52:16.745Z,2.96
2019-01-10T10:53:16.547Z,3.07
2019-01-10T10:54:16.626Z,3.02
2019-01-10T10:55:16.516Z,3.08
2019-01-10T10:56:16.546Z,3.00
2019-01-10T10:57:16.677Z,3.08
2019-01-10T10:58:16.531Z,2.94
2019-01-10T10:59:16.477Z,3.14
2019-01-10T11:00:16.512Z,3.26
2019-01-10T11:01:16.498Z,3.22
2019-01-10T11:02:16.446Z,3.11
2019-01-10T11:03:16.434Z,3.12
2019-01-10T11:04:16.438Z,2.97
2019-01-10T11:05:16.411Z,2.96
2019-01-10T11:06:16.484Z,2.81
2019-01-10T11:07:16.394Z,2.81
2019-01-10T11:08:16.403Z,2.82
2019-01-10T11:09:16.425Z,2.79
2019-01-10T11:10:16.391Z,2.81
2019-01-10T11:11:16.349Z,2.76
2019-01-10T11:12:16.380Z,2.96
2019-01-10T11:13:16.331Z,2.82
2019-01-10T11:14:16.334Z,2.84
2019-01-10T11:15:16.303Z,2.94
2019-01-10T11:16:16.288Z,2.96
2019-01-10T11:17:16.283Z,3.00
2019-01-10T11:18:16.316Z,2.89
2019-01-10T11:19:16.270Z,2.86
2019-01-10T11:20:16.365Z,2.84
2019-01-10T11:21:16.862Z,3.00
2019-01-10T11:22:16.230Z,2.99
2019-01-10T11:23:16.253Z,3.00
2019-01-10T11:24:16.223Z,3.14
2019-01-10T11:25:16.194Z,3.18
2019-01-10T11:26:16.191Z,3.18
2019-01-10T11:27:16.189Z,2.96
2019-01-10T11:28:16.225Z,2.96
2019-01-10T11:29:16.197Z,3.00
2019-01-10T11:30:16.141Z,3.11
2019-01-10T11:31:16.157Z,3.17
2019-01-10T11:32:16.115Z,3.32
2019-01-10T11:33:16.109Z,3.27
2019-01-10T11:34:16.111Z,3.36
2019-01-10T11:35:16.211Z,3.48
2019-01-10T11:36:16.082Z,3.48
2019-01-10T11:37:16.061Z,3.33
2019-01-10T11:38:16.059Z,3.25
2019-01-10T11:39:16.075Z,3.26
2019-01-10T11:40:16.034Z,3.27
2019-01-10T11:41:16.387Z,3.20
2019-01-10T11:42:16.057Z,3.27
2019-01-10T11:43:15.999Z,3.18
2019-01-10T11:44:16.026Z,3.08
2019-01-10T11:45:15.974Z,3.26
2019-01-10T11:46:19.715Z,3.22
2019-01-10T11:47:16.041Z,3.22
2019-01-10T11:48:15.947Z,3.33
2019-01-10T11:49:15.928Z,3.26
2019-01-10T11:50:15.920Z,3.20
2019-01-10T11:51:15.907Z,3.20
2019-01-10T11:52:15.902Z,3.36
2019-01-10T11:53:15.929Z,3.27
2019-01-10T11:54:15.883Z,3.23
2019-01-10T11:55:15.911Z,3.27
2019-01-10T11:56:15.852Z,3.26
2019-01-10T11:57:15.852Z,3.23
2019-01-10T11:58:15.828Z,3.33
2019-01-10T11:59:15.821Z,3.41
2019-01-10T12:00:15.819Z,3.49
2019-01-10T12:01:15.859Z,3.44
2019-01-10T12:02:15.792Z,3.54
2019-01-10T12:03:15.781Z,3.52
2019-01-10T12:04:15.769Z,3.56
2019-01-10T12:05:15.754Z,3.46
2019-01-10T12:06:15.802Z,3.45
2019-01-10T12:07:15.793Z,3.41
2019-01-10T12:08:15.781Z,3.32
2019-01-10T12:09:15.767Z,3.29
2019-01-10T12:10:15.714Z,3.29
2019-01-10T12:11:15.686Z,3.35
2019-01-10T12:12:15.688Z,3.36
2019-01-10T12:13:15.747Z,3.26
2019-01-10T12:14:15.673Z,3.36
2019-01-10T12:15:15.683Z,3.46
2019-01-10T12:16:15.644Z,3.45
2019-01-10T12:17:15.667Z,3.33
2019-01-10T12:18:15.636Z,3.41
2019-01-10T12:19:15.607Z,3.36
2019-01-10T12:20:15.710Z,3.44
2019-01-10T12:21:15.587Z,3.35
2019-01-10T12:22:15.576Z,3.42
2019-01-10T12:23:16.886Z,3.35
2019-01-10T12:24:15.571Z,3.44
2019-01-10T12:25:15.864Z,3.59
2019-01-10T12:26:15.527Z,3.55
2019-01-10T12:27:15.524Z,3.51
2019-01-10T12:28:15.533Z,3.54
2019-01-10T12:29:15.507Z,3.46
2019-01-10T12:30:15.492Z,3.45
2019-01-10T12:31:15.524Z,3.33
2019-01-10T12:32:15.465Z,3.25
2019-01-10T12:33:15.453Z,3.26
2019-01-10T12:34:15.442Z,3.12
2019-01-10T12:35:15.476Z,3.26
2019-01-10T12:36:15.550Z,3.23
2019-01-10T12:37:15.417Z,3.25
2019-01-10T12:38:15.394Z,3.25
2019-01-10T12:39:15.392Z,3.22
2019-01-10T12:40:15.379Z,3.29
2019-01-10T12:41:15.409Z,3.29
2019-01-10T12:42:15.359Z,3.26
2019-01-10T12:43:15.386Z,3.30
2019-01-10T12:44:15.371Z,3.30
2019-01-10T12:45:15.343Z,3.29
2019-01-10T12:46:15.327Z,3.45
2019-01-10T12:47:15.330Z,3.56
2019-01-10T12:48:15.788Z,3.48
2019-01-10T12:49:15.372Z,3.33
2019-01-10T12:50:15.358Z,3.41
2019-01-10T12:51:15.299Z,3.41
2019-01-10T12:52:15.242Z,3.46
2019-01-10T12:53:15.232Z,3.37
2019-01-10T12:54:15.224Z,3.42
2019-01-10T12:55:15.229Z,3.46
2019-01-10T12:56:15.210Z,3.42
2019-01-10T12:57:15.241Z,3.41
2019-01-10T12:58:15.176Z,3.25
2019-01-10T12:59:15.169Z,3.15
2019-01-10T13:00:15.159Z,3.29
2019-01-10T13:01:15.142Z,3.37
2019-01-10T13:02:15.138Z,3.29
2019-01-10T13:03:15.195Z,3.20
2019-01-10T13:04:15.122Z,3.26
2019-01-10T13:05:15.099Z,3.44
2019-01-10T13:06:15.092Z,3.66
2019-01-10T13:07:15.127Z,3.55
2019-01-10T13:08:15.070Z,3.54
2019-01-10T13:09:15.101Z,3.49
2019-01-10T13:10:15.183Z,3.36
2019-01-10T13:11:15.035Z,3.32
2019-01-10T13:12:15.029Z,3.27
2019-01-10T13:13:15.017Z,3.23
2019-01-10T13:14:15.032Z,3.26
2019-01-10T13:15:15.050Z,3.32
2019-01-10T13:16:15.039Z,3.27
2019-01-10T13:17:14.971Z,3.26
2019-01-10T13:18:15.012Z,3.46